createdAt,value
2023-01-12T00:02:14.021Z,9.99
2023-01-12T00:04:40.599Z,9.99
2023-01-12T00:07:12.188Z,10.05
2023-01-12T00:09:38.952Z,10.03
2023-01-12T00:12:07.854Z,10.02
2023-01-12T00:14:35.511Z,10.06
2023-01-12T00:17:02.539Z,10.07
2023-01-12T00:19:31.569Z,10.07
2023-01-12T00:22:07.014Z,10.02
2023-01-12T00:24:35.909Z,10.01
2023-01-12T00:27:04.722Z,9.99
2023-01-12T00:29:31.554Z,9.99
2023-01-12T00:32:00.191Z,9.95
2023-01-12T00:34:29.419Z,9.97
2023-01-12T00:36:56.466Z,9.97
2023-01-12T00:39:23.246Z,9.99
2023-01-12T00:42:08.095Z,10.01
2023-01-12T00:44:53.337Z,9.98
2023-01-12T00:47:19.690Z,9.96
2023-01-12T00:49:46.648Z,9.97
2023-01-12T00:52:29.308Z,9.98
2023-01-12T00:54:57.501Z,9.97
2023-01-12T00:57:24.046Z,10.00
2023-01-12T00:59:51.613Z,10.00
2023-01-12T01:02:18.187Z,10.00
2023-01-12T01:04:44.642Z,10.02
2023-01-12T01:07:11.107Z,10.02
2023-01-12T01:09:37.558Z,10.01
2023-01-12T01:12:04.113Z,10.01
2023-01-12T01:14:30.559Z,9.99
2023-01-12T01:16:56.986Z,9.97
2023-01-12T01:19:24.649Z,9.95
2023-01-12T01:21:51.084Z,9.94
2023-01-12T01:24:19.724Z,9.94
2023-01-12T01:26:46.161Z,9.95
2023-01-12T01:29:12.852Z,9.95
2023-01-12T01:31:40.693Z,9.94
2023-01-12T01:34:07.205Z,9.91
2023-01-12T01:36:34.290Z,9.95
2023-01-12T01:39:00.786Z,9.95
2023-01-12T01:41:30.202Z,9.95
2023-01-12T01:44:31.376Z,9.97
2023-01-12T01:47:15.423Z,9.95
2023-01-12T01:49:51.424Z,9.93
2023-01-12T01:52:28.757Z,9.91
2023-01-12T01:55:04.504Z,9.90
2023-01-12T01:57:45.977Z,9.86
2023-01-12T02:00:13.542Z,9.82
2023-01-12T02:02:42.562Z,9.83
2023-01-12T02:05:09.945Z,9.83
2023-01-12T02:07:36.662Z,9.85
2023-01-12T02:10:03.800Z,9.85
2023-01-12T02:12:49.408Z,9.88
2023-01-12T02:15:34.565Z,9.90
2023-01-12T02:18:21.426Z,9.86
2023-01-12T02:21:01.221Z,9.88
2023-01-12T02:23:42.998Z,9.87
2023-01-12T02:26:24.723Z,9.89
2023-01-12T02:29:06.507Z,9.89
2023-01-12T02:32:11.178Z,9.89
2023-01-12T02:35:04.692Z,9.86
2023-01-12T02:37:37.178Z,9.88
2023-01-12T02:40:25.726Z,9.86
2023-01-12T02:43:09.013Z,9.87
2023-01-12T02:45:51.488Z,9.84
2023-01-12T02:48:29.122Z,9.83
2023-01-12T02:51:22.901Z,9.84
2023-01-12T02:53:59.850Z,9.83
2023-01-12T02:56:35.287Z,9.82
2023-01-12T02:59:09.727Z,9.82
2023-01-12T03:01:37.703Z,9.80
2023-01-12T03:04:06.449Z,9.84
2023-01-12T03:06:45.631Z,9.84
2023-01-12T03:09:15.804Z,9.82
2023-01-12T03:11:44.016Z,9.81
2023-01-12T03:14:12.886Z,9.82
2023-01-12T03:16:40.410Z,9.81
2023-01-12T03:19:25.635Z,9.84
2023-01-12T03:22:00.070Z,9.85
2023-01-12T03:24:30.513Z,9.85
2023-01-12T03:27:06.173Z,9.84
2023-01-12T03:29:39.672Z,9.83
2023-01-12T03:32:06.695Z,9.80
2023-01-12T03:34:35.173Z,9.79
2023-01-12T03:37:30.091Z,9.79
2023-01-12T03:40:08.443Z,9.77
2023-01-12T03:43:13.850Z,9.76
2023-01-12T03:45:49.104Z,9.76
2023-01-12T03:48:22.360Z,9.76
2023-01-12T03:50:55.727Z,9.72
2023-01-12T03:53:23.391Z,9.65
2023-01-12T03:55:55.276Z,9.63
2023-01-12T03:58:24.147Z,9.63
2023-01-12T04:00:50.627Z,9.61
2023-01-12T04:03:18.242Z,9.62
2023-01-12T04:05:45.306Z,9.60
2023-01-12T04:08:13.774Z,9.60
2023-01-12T04:10:40.583Z,9.59
2023-01-12T04:13:07.027Z,9.58
2023-01-12T04:15:37.984Z,9.57
2023-01-12T04:18:05.213Z,9.55
2023-01-12T04:20:31.744Z,9.55
2023-01-12T04:22:58.569Z,9.53
2023-01-12T04:25:25.014Z,9.50
2023-01-12T04:27:56.692Z,9.52
2023-01-12T04:30:26.990Z,9.52
2023-01-12T04:32:54.613Z,9.49
2023-01-12T04:35:21.886Z,9.45
2023-01-12T04:37:48.373Z,9.50
2023-01-12T04:40:15.825Z,9.50
2023-01-12T04:43:08.275Z,9.47
2023-01-12T04:45:37.804Z,9.51
2023-01-12T04:48:07.252Z,9.49
2023-01-12T04:50:33.929Z,9.46
2023-01-12T04:53:04.758Z,9.50
2023-01-12T04:55:31.343Z,9.52
2023-01-12T04:58:00.988Z,9.53
2023-01-12T05:00:27.870Z,9.53
2023-01-12T05:02:59.207Z,9.55
2023-01-12T05:05:28.787Z,9.56
2023-01-12T05:08:14.376Z,9.58
2023-01-12T05:10:40.774Z,9.60
2023-01-12T05:13:07.205Z,9.60
2023-01-12T05:15:33.755Z,9.59
2023-01-12T05:18:00.194Z,9.64
2023-01-12T05:20:26.585Z,9.64
2023-01-12T05:22:53.087Z,9.67
2023-01-12T05:25:19.507Z,9.67
2023-01-12T05:27:45.906Z,9.65
2023-01-12T05:30:12.597Z,9.67
2023-01-12T05:32:41.241Z,9.63
2023-01-12T05:35:08.830Z,9.68
2023-01-12T05:37:35.410Z,9.69
2023-01-12T05:40:01.815Z,9.68
2023-01-12T05:42:47.356Z,9.69
2023-01-12T05:45:13.913Z,9.65
2023-01-12T05:47:40.346Z,9.67
2023-01-12T05:50:07.179Z,9.66
2023-01-12T05:52:36.482Z,9.66
2023-01-12T05:55:04.066Z,9.66
2023-01-12T05:57:31.211Z,9.68
2023-01-12T05:59:57.612Z,9.71
2023-01-12T06:02:24.040Z,9.67
2023-01-12T06:04:50.585Z,9.72
2023-01-12T06:07:17.136Z,9.72
2023-01-12T06:09:43.671Z,9.73
2023-01-12T06:12:31.468Z,9.72
2023-01-12T06:15:00.665Z,9.71
2023-01-12T06:17:27.040Z,9.73
2023-01-12T06:19:53.487Z,9.75
2023-01-12T06:22:19.918Z,9.78
2023-01-12T06:24:49.196Z,9.83
2023-01-12T06:27:16.453Z,9.87
2023-01-12T06:29:43.048Z,9.94
2023-01-12T06:32:09.425Z,9.98
2023-01-12T06:34:36.188Z,10.01
2023-01-12T06:37:04.540Z,10.06
2023-01-12T06:39:31.079Z,10.08
2023-01-12T06:42:16.318Z,10.14
2023-01-12T06:44:42.680Z,10.21
2023-01-12T06:47:09.062Z,10.26
2023-01-12T06:49:35.582Z,10.33
2023-01-12T06:52:05.338Z,10.39
2023-01-12T06:54:31.698Z,10.47
2023-01-12T06:56:58.139Z,10.54
2023-01-12T06:59:24.659Z,10.57
2023-01-12T07:01:51.328Z,10.66
2023-01-12T07:04:17.971Z,10.68
2023-01-12T07:06:44.499Z,10.78
2023-01-12T07:09:11.043Z,10.87
2023-01-12T07:11:37.467Z,10.90
2023-01-12T07:14:03.808Z,10.93
2023-01-12T07:16:30.249Z,10.94
2023-01-12T07:18:56.763Z,10.95
2023-01-12T07:21:23.264Z,10.98
2023-01-12T07:23:49.621Z,11.03
2023-01-12T07:26:16.128Z,11.04
2023-01-12T07:28:42.842Z,11.08
2023-01-12T07:31:09.482Z,11.11
2023-01-12T07:33:37.770Z,11.13
2023-01-12T07:36:04.954Z,11.16
2023-01-12T07:38:31.737Z,11.21
2023-01-12T07:41:00.147Z,11.24
2023-01-12T07:43:26.735Z,11.27
2023-01-12T07:45:55.821Z,11.30
2023-01-12T07:48:22.742Z,11.30
2023-01-12T07:50:49.254Z,11.33
2023-01-12T07:53:15.627Z,11.35
2023-01-12T07:55:43.742Z,11.36
2023-01-12T07:58:10.642Z,11.39
2023-01-12T08:00:37.336Z,11.41
2023-01-12T08:03:09.562Z,11.40
2023-01-12T08:05:39.745Z,11.38
2023-01-12T08:08:07.055Z,11.41
2023-01-12T08:10:33.820Z,11.42
2023-01-12T08:13:00.324Z,11.44
2023-01-12T08:15:31.656Z,11.44
2023-01-12T08:18:06.330Z,11.44
2023-01-12T08:20:37.285Z,11.45
2023-01-12T08:23:15.527Z,11.49
2023-01-12T08:25:46.393Z,11.50
2023-01-12T08:28:17.496Z,11.55
2023-01-12T08:30:46.871Z,11.57
2023-01-12T08:33:13.584Z,11.59
2023-01-12T08:35:40.167Z,11.61
2023-01-12T08:38:06.725Z,11.62
2023-01-12T08:40:51.824Z,11.56
2023-01-12T08:43:38.151Z,11.66
2023-01-12T08:46:07.913Z,11.69
2023-01-12T08:48:38.091Z,11.69
2023-01-12T08:51:07.771Z,11.71
2023-01-12T08:53:34.357Z,11.73
2023-01-12T08:56:00.762Z,11.75
2023-01-12T08:58:27.289Z,11.76
2023-01-12T09:00:53.949Z,11.79
2023-01-12T09:03:20.522Z,11.81
2023-01-12T09:05:47.829Z,11.82
2023-01-12T09:08:14.750Z,11.83
2023-01-12T09:10:41.235Z,11.85
2023-01-12T09:13:07.719Z,11.86
2023-01-12T09:15:34.090Z,11.86
2023-01-12T09:18:00.533Z,11.87
2023-01-12T09:20:26.998Z,11.86
2023-01-12T09:22:53.475Z,11.87
2023-01-12T09:25:25.871Z,11.85
2023-01-12T09:27:52.385Z,11.87
2023-01-12T09:30:19.045Z,11.86
2023-01-12T09:32:45.595Z,11.86
2023-01-12T09:35:12.064Z,11.87
2023-01-12T09:37:40.459Z,11.88
2023-01-12T09:40:07.550Z,11.88
2023-01-12T09:42:53.465Z,11.90
2023-01-12T09:45:41.341Z,11.91
2023-01-12T09:48:18.509Z,11.90
2023-01-12T09:50:55.948Z,11.95
2023-01-12T09:53:27.875Z,11.97
2023-01-12T09:56:03.342Z,11.98
2023-01-12T09:59:11.369Z,11.98
2023-01-12T10:01:38.573Z,12.02
2023-01-12T10:04:05.497Z,12.06
2023-01-12T10:06:33.023Z,12.01
2023-01-12T10:09:09.925Z,12.12
2023-01-12T10:11:58.030Z,12.13
2023-01-12T10:14:33.699Z,12.12
2023-01-12T10:17:14.565Z,12.11
2023-01-12T10:19:51.105Z,12.10
2023-01-12T10:22:37.021Z,12.11
2023-01-12T10:25:12.803Z,12.08
2023-01-12T10:27:43.220Z,12.01
2023-01-12T10:30:40.588Z,11.94
2023-01-12T10:33:22.811Z,11.94
2023-01-12T10:35:50.828Z,11.94
2023-01-12T10:38:28.336Z,11.91
2023-01-12T10:41:17.140Z,11.90
2023-01-12T10:43:47.687Z,11.91
2023-01-12T10:46:19.411Z,11.92
2023-01-12T10:48:48.466Z,11.92
2023-01-12T10:51:34.520Z,11.92
2023-01-12T10:54:32.666Z,11.91
2023-01-12T10:57:16.579Z,11.91
2023-01-12T10:59:57.911Z,11.90
2023-01-12T11:02:28.349Z,11.89
2023-01-12T11:04:55.570Z,11.88
2023-01-12T11:07:28.885Z,11.79
2023-01-12T11:10:20.163Z,11.84
2023-01-12T11:12:58.914Z,11.85
2023-01-12T11:15:26.287Z,11.81
2023-01-12T11:18:32.088Z,11.84
2023-01-12T11:21:04.368Z,11.81
2023-01-12T11:24:05.634Z,11.81
2023-01-12T11:26:53.072Z,11.79
2023-01-12T11:29:45.142Z,11.81
2023-01-12T11:32:24.896Z,11.80
2023-01-12T11:34:57.559Z,11.81
2023-01-12T11:37:24.312Z,11.81
2023-01-12T11:39:57.943Z,11.80
2023-01-12T11:42:46.957Z,11.80
2023-01-12T11:45:17.257Z,11.78
2023-01-12T11:47:50.844Z,11.79
2023-01-12T11:50:25.300Z,11.79
2023-01-12T11:52:52.703Z,11.80
2023-01-12T11:55:42.670Z,11.80
2023-01-12T11:58:19.799Z,11.81
2023-01-12T12:00:55.458Z,11.81
2023-01-12T12:03:33.389Z,11.83
2023-01-12T12:06:18.359Z,11.85
2023-01-12T12:09:17.373Z,11.86
2023-01-12T12:11:56.598Z,11.85
2023-01-12T12:14:41.607Z,11.84
2023-01-12T12:17:21.849Z,11.82
2023-01-12T12:20:07.025Z,11.81
2023-01-12T12:22:57.699Z,11.80
2023-01-12T12:25:32.877Z,11.77
2023-01-12T12:28:16.584Z,11.76
2023-01-12T12:31:06.751Z,11.74
2023-01-12T12:33:51.230Z,11.73
2023-01-12T12:36:39.647Z,11.74
2023-01-12T12:39:50.751Z,11.73
2023-01-12T12:43:01.847Z,11.74
2023-01-12T12:45:43.532Z,11.72
2023-01-12T12:48:15.822Z,11.70
2023-01-12T12:51:00.101Z,11.69
2023-01-12T12:53:30.775Z,11.69
2023-01-12T12:56:01.006Z,11.67
2023-01-12T12:58:37.733Z,11.68
2023-01-12T13:01:19.490Z,11.69
2023-01-12T13:03:46.933Z,11.68
2023-01-12T13:06:38.948Z,11.66
2023-01-12T13:09:11.534Z,11.64
2023-01-12T13:12:00.476Z,11.65
2023-01-12T13:14:33.124Z,11.64
2023-01-12T13:17:00.870Z,11.63
2023-01-12T13:19:40.902Z,11.64
2023-01-12T13:22:32.579Z,11.63
2023-01-12T13:25:24.328Z,11.60
2023-01-12T13:28:02.917Z,11.61
2023-01-12T13:30:29.566Z,11.63
2023-01-12T13:33:17.201Z,11.64
2023-01-12T13:35:46.907Z,11.64
2023-01-12T13:38:44.175Z,11.65
2023-01-12T13:41:13.595Z,11.65
2023-01-12T13:43:55.115Z,11.66
2023-01-12T13:46:25.967Z,11.64
2023-01-12T13:48:56.395Z,11.69
2023-01-12T13:51:34.224Z,11.68
2023-01-12T13:54:07.377Z,11.69
2023-01-12T13:56:33.932Z,11.69
2023-01-12T13:59:03.563Z,11.69
2023-01-12T14:01:34.642Z,11.70
2023-01-12T14:04:10.175Z,11.70
2023-01-12T14:07:14.105Z,11.69
2023-01-12T14:10:05.120Z,11.65
2023-01-12T14:12:43.862Z,11.65
2023-01-12T14:16:00.458Z,11.65
2023-01-12T14:18:48.518Z,11.59
2023-01-12T14:21:29.146Z,11.63
2023-01-12T14:24:16.258Z,11.63
2023-01-12T14:26:42.763Z,11.61
2023-01-12T14:29:12.885Z,11.61
2023-01-12T14:31:44.219Z,11.61
2023-01-12T14:34:32.334Z,11.60
2023-01-12T14:36:59.917Z,11.60
2023-01-12T14:39:29.636Z,11.52
2023-01-12T14:42:16.329Z,11.59
2023-01-12T14:45:09.195Z,11.58
2023-01-12T14:47:35.840Z,11.58
2023-01-12T14:50:16.502Z,11.59
2023-01-12T14:52:49.157Z,11.59
2023-01-12T14:55:15.607Z,11.62
2023-01-12T14:57:54.948Z,11.61
2023-01-12T15:00:28.324Z,11.61
2023-01-12T15:02:56.736Z,11.60
2023-01-12T15:05:26.388Z,11.59
2023-01-12T15:08:32.559Z,11.58
2023-01-12T15:11:06.140Z,11.54
2023-01-12T15:13:34.631Z,11.50
2023-01-12T15:16:20.980Z,11.52
2023-01-12T15:19:06.052Z,11.52
2023-01-12T15:21:53.230Z,11.51
2023-01-12T15:24:46.886Z,11.50
2023-01-12T15:27:17.236Z,11.48
2023-01-12T15:29:43.729Z,11.48
2023-01-12T15:32:19.166Z,11.45
2023-01-12T15:34:46.085Z,11.47
2023-01-12T15:37:17.480Z,11.48
2023-01-12T15:39:44.284Z,11.42
2023-01-12T15:42:17.851Z,11.43
2023-01-12T15:44:45.999Z,11.44
2023-01-12T15:47:16.528Z,11.42
2023-01-12T15:49:48.652Z,11.45
2023-01-12T15:52:20.302Z,11.44
2023-01-12T15:54:47.041Z,11.45
2023-01-12T15:57:14.947Z,11.45
2023-01-12T15:59:42.849Z,11.41
2023-01-12T16:02:24.010Z,11.43
2023-01-12T16:04:50.599Z,11.45
2023-01-12T16:07:17.004Z,11.46
2023-01-12T16:09:47.638Z,11.47
2023-01-12T16:12:14.919Z,11.50
2023-01-12T16:14:41.538Z,11.51
2023-01-12T16:17:08.039Z,11.55
2023-01-12T16:19:40.883Z,11.55
2023-01-12T16:22:25.162Z,11.57
2023-01-12T16:24:53.419Z,11.57
2023-01-12T16:27:22.911Z,11.58
2023-01-12T16:29:49.538Z,11.57
2023-01-12T16:32:16.113Z,11.57
2023-01-12T16:34:42.607Z,11.60
2023-01-12T16:37:16.023Z,11.56
2023-01-12T16:39:42.985Z,11.58
2023-01-12T16:42:11.379Z,11.59
2023-01-12T16:44:40.156Z,11.59
2023-01-12T16:47:10.795Z,11.61
2023-01-12T16:49:37.278Z,11.62
2023-01-12T16:52:04.948Z,11.62
2023-01-12T16:54:33.374Z,11.61
2023-01-12T16:57:00.033Z,11.61
2023-01-12T16:59:32.614Z,11.61
2023-01-12T17:02:07.719Z,11.58
2023-01-12T17:04:35.972Z,11.59
2023-01-12T17:07:03.693Z,11.58
2023-01-12T17:09:30.242Z,11.58
2023-01-12T17:11:58.194Z,11.59
2023-01-12T17:14:25.337Z,11.58
2023-01-12T17:16:54.826Z,11.58
2023-01-12T17:19:24.474Z,11.58
2023-01-12T17:21:51.366Z,11.57
2023-01-12T17:24:21.321Z,11.55
2023-01-12T17:26:50.102Z,11.58
2023-01-12T17:29:16.571Z,11.60
2023-01-12T17:31:43.481Z,11.60
2023-01-12T17:34:12.097Z,11.65
2023-01-12T17:36:38.915Z,11.65
2023-01-12T17:39:06.865Z,11.66
2023-01-12T17:41:51.919Z,11.65
2023-01-12T17:44:18.820Z,11.65
2023-01-12T17:46:45.697Z,11.67
2023-01-12T17:49:13.196Z,11.68
2023-01-12T17:51:40.605Z,11.68
2023-01-12T17:54:08.815Z,11.66
2023-01-12T17:56:35.525Z,11.67
2023-01-12T17:59:05.425Z,11.68
2023-01-12T18:01:34.121Z,11.66
2023-01-12T18:04:01.092Z,11.67
2023-01-12T18:06:27.968Z,11.66
2023-01-12T18:09:01.703Z,11.64
2023-01-12T18:11:29.178Z,11.66
2023-01-12T18:13:55.722Z,11.63
2023-01-12T18:16:22.251Z,11.66
2023-01-12T18:18:50.496Z,11.63
2023-01-12T18:21:21.009Z,11.63
2023-01-12T18:23:49.291Z,11.63
2023-01-12T18:26:29.161Z,11.61
2023-01-12T18:28:57.246Z,11.62
2023-01-12T18:31:26.436Z,11.61
2023-01-12T18:34:05.579Z,11.61
2023-01-12T18:36:34.531Z,11.62
2023-01-12T18:39:01.013Z,11.62
2023-01-12T18:41:45.849Z,11.60
2023-01-12T18:44:12.280Z,11.61
2023-01-12T18:47:02.625Z,11.61
2023-01-12T18:49:33.883Z,11.60
2023-01-12T18:52:19.840Z,11.58
2023-01-12T18:54:48.095Z,11.57
2023-01-12T18:57:18.924Z,11.59
2023-01-12T18:59:50.846Z,11.59
2023-01-12T19:02:18.633Z,11.50
2023-01-12T19:04:50.808Z,11.58
2023-01-12T19:07:17.569Z,11.56
2023-01-12T19:09:43.991Z,11.49
2023-01-12T19:12:10.347Z,11.45
2023-01-12T19:14:55.189Z,11.43
2023-01-12T19:17:27.317Z,11.43
2023-01-12T19:19:54.202Z,11.43
2023-01-12T19:22:39.315Z,11.40
2023-01-12T19:25:24.539Z,11.37
2023-01-12T19:28:09.390Z,11.41
2023-01-12T19:30:37.475Z,11.36
2023-01-12T19:33:07.994Z,11.44
2023-01-12T19:35:36.307Z,11.45
2023-01-12T19:38:02.787Z,11.45
2023-01-12T19:40:35.365Z,11.47
2023-01-12T19:43:18.602Z,11.46
2023-01-12T19:45:47.340Z,11.45
2023-01-12T19:48:15.711Z,11.43
2023-01-12T19:50:44.067Z,11.43
2023-01-12T19:53:14.696Z,11.41
2023-01-12T19:55:42.555Z,11.40
2023-01-12T19:58:09.908Z,11.39
2023-01-12T20:00:43.072Z,11.37
2023-01-12T20:03:10.674Z,11.34
2023-01-12T20:05:38.627Z,11.30
2023-01-12T20:08:06.649Z,11.29
2023-01-12T20:10:34.331Z,11.29
2023-01-12T20:13:01.932Z,11.26
2023-01-12T20:15:28.600Z,11.27
2023-01-12T20:17:58.125Z,11.25
2023-01-12T20:20:24.495Z,11.23
2023-01-12T20:22:51.050Z,11.23
2023-01-12T20:25:18.132Z,11.24
2023-01-12T20:27:46.254Z,11.25
2023-01-12T20:30:16.460Z,11.25
2023-01-12T20:32:45.604Z,11.26
2023-01-12T20:35:15.427Z,11.21
2023-01-12T20:37:43.050Z,11.24
2023-01-12T20:40:10.808Z,11.25
2023-01-12T20:42:37.379Z,11.23
2023-01-12T20:45:05.818Z,11.25
2023-01-12T20:47:33.602Z,11.24
2023-01-12T20:50:01.036Z,11.19
2023-01-12T20:52:28.227Z,11.20
2023-01-12T20:54:55.105Z,11.19
2023-01-12T20:57:21.629Z,11.15
2023-01-12T20:59:48.948Z,11.16
2023-01-12T21:02:27.990Z,11.12
2023-01-12T21:04:54.413Z,11.13
2023-01-12T21:07:21.824Z,11.07
2023-01-12T21:09:48.339Z,11.10
2023-01-12T21:12:14.739Z,11.10
2023-01-12T21:14:41.176Z,11.09
2023-01-12T21:17:10.494Z,11.07
2023-01-12T21:19:36.974Z,11.08
2023-01-12T21:22:04.005Z,11.07
2023-01-12T21:24:30.653Z,11.07
2023-01-12T21:26:57.111Z,11.09
2023-01-12T21:29:26.435Z,11.09
2023-01-12T21:31:53.541Z,11.07
2023-01-12T21:34:20.097Z,11.07
2023-01-12T21:36:46.774Z,11.08
2023-01-12T21:39:13.432Z,11.10
2023-01-12T21:41:58.203Z,11.11
2023-01-12T21:44:24.582Z,11.11
2023-01-12T21:46:50.977Z,11.10
2023-01-12T21:49:17.415Z,11.08
2023-01-12T21:51:43.884Z,11.09
2023-01-12T21:54:10.670Z,11.02
2023-01-12T21:56:37.108Z,11.00
2023-01-12T21:59:03.627Z,10.94
2023-01-12T22:01:32.574Z,10.91
2023-01-12T22:03:59.180Z,10.85
2023-01-12T22:06:25.546Z,10.85
2023-01-12T22:08:54.642Z,10.81
2023-01-12T22:11:21.028Z,10.78
2023-01-12T22:13:47.467Z,10.73
2023-01-12T22:16:15.224Z,10.70
2023-01-12T22:18:49.116Z,10.68
2023-01-12T22:21:17.107Z,10.66
2023-01-12T22:23:43.881Z,10.62
2023-01-12T22:26:13.931Z,10.62
2023-01-12T22:28:42.392Z,10.61
2023-01-12T22:31:12.949Z,10.59
2023-01-12T22:33:39.887Z,10.56
2023-01-12T22:36:07.507Z,10.56
2023-01-12T22:38:34.298Z,10.53
2023-01-12T22:41:07.424Z,10.53
2023-01-12T22:43:40.414Z,10.51
2023-01-12T22:46:17.427Z,10.49
2023-01-12T22:48:44.011Z,10.45
2023-01-12T22:51:10.535Z,10.46
2023-01-12T22:53:36.925Z,10.46
2023-01-12T22:56:04.526Z,10.43
2023-01-12T22:58:31.203Z,10.43
2023-01-12T23:01:09.425Z,10.41
2023-01-12T23:03:37.411Z,10.39
2023-01-12T23:06:04.990Z,10.37
2023-01-12T23:08:31.515Z,10.34
2023-01-12T23:11:09.246Z,10.33
2023-01-12T23:13:35.869Z,10.30
2023-01-12T23:16:06.496Z,10.29
2023-01-12T23:18:35.234Z,10.29
2023-01-12T23:21:15.998Z,10.29
2023-01-12T23:23:53.805Z,10.29
2023-01-12T23:26:39.427Z,10.30
2023-01-12T23:29:05.817Z,10.30
2023-01-12T23:31:33.646Z,10.33
2023-01-12T23:34:00.727Z,10.34
2023-01-12T23:36:29.427Z,10.33
2023-01-12T23:39:03.447Z,10.37
2023-01-12T23:41:32.237Z,10.38
2023-01-12T23:44:00.740Z,10.36
2023-01-12T23:46:29.210Z,10.33
2023-01-12T23:48:58.919Z,10.33
2023-01-12T23:51:27.053Z,10.31
2023-01-12T23:54:00.033Z,10.26
2023-01-12T23:56:28.485Z,10.22
2023-01-12T23:58:55.116Z,10.19
